createdAt,value
2023-01-30T00:01:03.799Z,100511.97
2023-01-30T00:03:31.648Z,100516.69
2023-01-30T00:05:59.155Z,100510.97
2023-01-30T00:08:26.599Z,100509.16
2023-01-30T00:10:54.443Z,100503.25
2023-01-30T00:13:21.843Z,100505.00
2023-01-30T00:15:49.270Z,100501.37
2023-01-30T00:18:16.943Z,100501.00
2023-01-30T00:20:44.375Z,100497.09
2023-01-30T00:23:11.767Z,100500.63
2023-01-30T00:25:39.643Z,100499.28
2023-01-30T00:28:07.193Z,100493.09
2023-01-30T00:30:34.729Z,100499.28
2023-01-30T00:33:02.456Z,100493.34
2023-01-30T00:35:30.078Z,100501.03
2023-01-30T00:37:58.312Z,100506.13
2023-01-30T00:40:27.838Z,100502.53
2023-01-30T00:43:14.398Z,100502.25
2023-01-30T00:46:02.835Z,100498.91
2023-01-30T00:48:30.394Z,100496.34
2023-01-30T00:50:58.197Z,100499.50
2023-01-30T00:53:25.833Z,100495.22
2023-01-30T00:55:53.983Z,100481.47
2023-01-30T00:58:22.516Z,100472.78
2023-01-30T01:00:50.574Z,100468.94
2023-01-30T01:03:18.699Z,100483.19
2023-01-30T01:05:46.453Z,100474.63
2023-01-30T01:08:15.027Z,100473.28
2023-01-30T01:10:42.613Z,100462.19
2023-01-30T01:13:10.692Z,100469.12
2023-01-30T01:15:38.241Z,100466.84
2023-01-30T01:18:06.567Z,100455.13
2023-01-30T01:20:34.340Z,100446.59
2023-01-30T01:23:03.428Z,100460.13
2023-01-30T01:25:30.779Z,100450.47
2023-01-30T01:27:58.440Z,100462.62
2023-01-30T01:30:25.916Z,100449.72
2023-01-30T01:32:53.394Z,100449.25
2023-01-30T01:35:21.088Z,100446.03
2023-01-30T01:37:48.603Z,100447.56
2023-01-30T01:40:37.894Z,100443.47
2023-01-30T01:43:23.078Z,100452.03
2023-01-30T01:46:03.795Z,100438.41
2023-01-30T01:48:54.822Z,100433.97
2023-01-30T01:51:49.981Z,100423.97
2023-01-30T01:54:22.876Z,100418.44
2023-01-30T01:56:50.574Z,100420.69
2023-01-30T01:59:24.893Z,100417.41
2023-01-30T02:01:55.293Z,100413.00
2023-01-30T02:04:41.646Z,100397.78
2023-01-30T02:07:09.137Z,100402.47
2023-01-30T02:09:37.665Z,100406.63
2023-01-30T02:12:05.986Z,100395.91
2023-01-30T02:14:34.306Z,100386.75
2023-01-30T02:17:01.719Z,100386.59
2023-01-30T02:19:41.498Z,100392.31
2023-01-30T02:22:29.040Z,100387.91
2023-01-30T02:25:15.094Z,100377.62
2023-01-30T02:27:58.254Z,100383.53
2023-01-30T02:30:41.284Z,100373.75
2023-01-30T02:33:23.324Z,100362.81
2023-01-30T02:36:03.053Z,100355.87
2023-01-30T02:38:43.255Z,100352.13
2023-01-30T02:41:15.494Z,100347.22
2023-01-30T02:44:18.336Z,100352.03
2023-01-30T02:46:54.642Z,100333.66
2023-01-30T02:49:29.812Z,100341.25
2023-01-30T02:52:00.400Z,100338.91
2023-01-30T02:54:28.040Z,100316.59
2023-01-30T02:56:57.741Z,100317.06
2023-01-30T02:59:25.199Z,100320.38
2023-01-30T03:02:03.719Z,100319.84
2023-01-30T03:04:31.838Z,100311.94
2023-01-30T03:07:30.508Z,100304.22
2023-01-30T03:10:24.365Z,100320.34
2023-01-30T03:13:19.821Z,100313.56
2023-01-30T03:16:00.431Z,100325.22
2023-01-30T03:18:28.157Z,100328.69
2023-01-30T03:20:56.095Z,100325.69
2023-01-30T03:23:23.513Z,100325.81
2023-01-30T03:25:51.343Z,100322.75
2023-01-30T03:28:21.240Z,100314.13
2023-01-30T03:30:49.028Z,100318.56
2023-01-30T03:33:16.574Z,100312.09
2023-01-30T03:35:47.087Z,100319.16
2023-01-30T03:38:14.865Z,100309.09
2023-01-30T03:40:42.727Z,100303.81
2023-01-30T03:43:10.469Z,100298.63
2023-01-30T03:45:38.008Z,100297.16
2023-01-30T03:48:05.925Z,100294.25
2023-01-30T03:50:33.928Z,100295.78
2023-01-30T03:53:01.543Z,100292.31
2023-01-30T03:55:29.491Z,100292.91
2023-01-30T03:57:58.029Z,100295.91
2023-01-30T04:00:27.523Z,100298.41
2023-01-30T04:02:57.197Z,100279.94
2023-01-30T04:05:43.920Z,100279.16
2023-01-30T04:08:11.607Z,100281.28
2023-01-30T04:10:39.058Z,100269.62
2023-01-30T04:13:06.595Z,100260.81
2023-01-30T04:15:34.359Z,100255.41
2023-01-30T04:18:02.117Z,100264.50
2023-01-30T04:20:30.333Z,100264.06
2023-01-30T04:22:58.194Z,100273.78
2023-01-30T04:25:25.884Z,100276.56
2023-01-30T04:27:53.389Z,100260.91
2023-01-30T04:30:21.437Z,100266.69
2023-01-30T04:32:49.959Z,100264.50
2023-01-30T04:35:17.650Z,100263.09
2023-01-30T04:37:45.770Z,100261.00
2023-01-30T04:40:13.676Z,100256.69
2023-01-30T04:42:41.226Z,100258.19
2023-01-30T04:45:11.835Z,100250.31
2023-01-30T04:47:39.329Z,100234.28
2023-01-30T04:50:07.255Z,100239.69
2023-01-30T04:52:35.037Z,100226.84
2023-01-30T04:55:03.135Z,100221.88
2023-01-30T04:57:30.654Z,100221.88
2023-01-30T04:59:58.896Z,100220.13
2023-01-30T05:02:26.563Z,100224.56
2023-01-30T05:04:53.973Z,100220.37
2023-01-30T05:07:22.112Z,100226.75
2023-01-30T05:09:49.607Z,100220.22
2023-01-30T05:12:17.028Z,100218.62
2023-01-30T05:14:46.507Z,100211.44
2023-01-30T05:17:13.998Z,100216.59
2023-01-30T05:19:41.445Z,100222.44
2023-01-30T05:22:09.100Z,100216.72
2023-01-30T05:24:36.805Z,100212.97
2023-01-30T05:27:04.615Z,100215.59
2023-01-30T05:29:32.351Z,100213.37
2023-01-30T05:31:59.745Z,100210.53
2023-01-30T05:34:27.208Z,100219.97
2023-01-30T05:36:54.880Z,100208.06
2023-01-30T05:39:22.183Z,100206.16
2023-01-30T05:41:49.542Z,100202.97
2023-01-30T05:44:17.253Z,100201.59
2023-01-30T05:46:44.763Z,100209.50
2023-01-30T05:49:12.191Z,100211.78
2023-01-30T05:51:39.860Z,100211.31
2023-01-30T05:54:07.151Z,100217.47
2023-01-30T05:56:34.751Z,100209.78
2023-01-30T05:59:02.227Z,100215.47
2023-01-30T06:01:29.810Z,100213.13
2023-01-30T06:03:58.514Z,100218.31
2023-01-30T06:06:26.033Z,100229.22
2023-01-30T06:08:54.892Z,100228.47
2023-01-30T06:11:23.654Z,100225.72
2023-01-30T06:13:51.151Z,100217.81
2023-01-30T06:16:19.255Z,100218.41
2023-01-30T06:18:47.253Z,100213.91
2023-01-30T06:21:15.336Z,100216.63
2023-01-30T06:23:43.090Z,100211.97
2023-01-30T06:26:10.851Z,100220.69
2023-01-30T06:28:38.205Z,100217.53
2023-01-30T06:31:06.215Z,100208.34
2023-01-30T06:33:33.920Z,100221.75
2023-01-30T06:36:01.608Z,100207.31
2023-01-30T06:38:29.055Z,100202.91
2023-01-30T06:40:56.735Z,100193.09
2023-01-30T06:43:24.119Z,100198.53
2023-01-30T06:45:51.906Z,100191.16
2023-01-30T06:48:19.703Z,100181.62
2023-01-30T06:50:48.230Z,100184.38
2023-01-30T06:53:15.761Z,100184.06
2023-01-30T06:55:43.639Z,100191.72
2023-01-30T06:58:13.005Z,100179.50
2023-01-30T07:00:42.478Z,100193.47
2023-01-30T07:03:11.809Z,100187.69
2023-01-30T07:05:40.130Z,100184.75
2023-01-30T07:08:07.825Z,100180.06
2023-01-30T07:10:36.018Z,100176.69
2023-01-30T07:13:04.117Z,100174.50
2023-01-30T07:15:32.438Z,100171.47
2023-01-30T07:18:00.688Z,100181.28
2023-01-30T07:20:30.092Z,100173.81
2023-01-30T07:22:57.726Z,100187.25
2023-01-30T07:25:26.921Z,100172.66
2023-01-30T07:27:59.946Z,100178.41
2023-01-30T07:30:29.270Z,100177.06
2023-01-30T07:32:58.086Z,100167.91
2023-01-30T07:35:26.882Z,100157.66
2023-01-30T07:37:54.636Z,100167.19
2023-01-30T07:40:22.322Z,100166.06
2023-01-30T07:43:00.389Z,100176.00
2023-01-30T07:45:35.893Z,100168.03
2023-01-30T07:48:03.693Z,100161.16
2023-01-30T07:50:31.452Z,100172.87
2023-01-30T07:52:58.998Z,100159.47
2023-01-30T07:55:27.311Z,100152.69
2023-01-30T07:57:55.029Z,100152.78
2023-01-30T08:00:22.621Z,100145.69
2023-01-30T08:02:50.336Z,100143.47
2023-01-30T08:05:17.797Z,100135.37
2023-01-30T08:07:47.441Z,100129.06
2023-01-30T08:10:15.938Z,100116.41
2023-01-30T08:12:43.593Z,100112.03
2023-01-30T08:15:11.281Z,100120.19
2023-01-30T08:17:39.085Z,100100.56
2023-01-30T08:20:07.247Z,100097.00
2023-01-30T08:22:34.754Z,100069.75
2023-01-30T08:25:02.629Z,100071.81
2023-01-30T08:27:30.227Z,100073.66
2023-01-30T08:29:57.833Z,100074.44
2023-01-30T08:32:25.565Z,100067.25
2023-01-30T08:34:53.001Z,100080.09
2023-01-30T08:37:20.470Z,100080.47
2023-01-30T08:39:48.154Z,100069.94
2023-01-30T08:42:15.614Z,100063.94
2023-01-30T08:44:42.988Z,100063.72
2023-01-30T08:47:10.703Z,100059.28
2023-01-30T08:49:38.119Z,100062.66
2023-01-30T08:52:05.705Z,100056.34
2023-01-30T08:54:33.462Z,100058.31
2023-01-30T08:57:00.848Z,100060.41
2023-01-30T08:59:28.219Z,100060.94
2023-01-30T09:01:56.068Z,100056.78
2023-01-30T09:04:25.059Z,100063.94
2023-01-30T09:06:52.824Z,100071.66
2023-01-30T09:09:20.560Z,100067.66
2023-01-30T09:11:48.290Z,100069.84
2023-01-30T09:14:19.958Z,100060.06
2023-01-30T09:16:49.700Z,100044.31
2023-01-30T09:19:17.112Z,100047.22
2023-01-30T09:21:44.346Z,100048.75
2023-01-30T09:24:11.984Z,100052.44
2023-01-30T09:26:40.500Z,100053.81
2023-01-30T09:29:07.901Z,100053.56
2023-01-30T09:31:35.905Z,100038.75
2023-01-30T09:34:03.552Z,100029.63
2023-01-30T09:36:30.843Z,100041.09
2023-01-30T09:38:58.482Z,100036.75
2023-01-30T09:41:50.726Z,100039.91
2023-01-30T09:44:23.354Z,100039.53
2023-01-30T09:47:13.824Z,100036.72
2023-01-30T09:49:56.408Z,100035.72
2023-01-30T09:52:32.956Z,100027.28
2023-01-30T09:55:15.658Z,100024.22
2023-01-30T09:57:42.990Z,100009.66
2023-01-30T10:00:13.822Z,100010.94
2023-01-30T10:02:41.843Z,99996.62
2023-01-30T10:05:09.200Z,99990.19
2023-01-30T10:07:49.335Z,99992.19
2023-01-30T10:10:26.868Z,99990.31
2023-01-30T10:13:10.314Z,99976.19
2023-01-30T10:15:50.489Z,99962.44
2023-01-30T10:18:50.128Z,99963.16
2023-01-30T10:21:47.655Z,99964.06
2023-01-30T10:24:42.149Z,99958.88
2023-01-30T10:27:17.019Z,99952.88
2023-01-30T10:29:54.460Z,99954.19
2023-01-30T10:32:29.030Z,99952.56
2023-01-30T10:35:00.152Z,99942.53
2023-01-30T10:37:32.975Z,99926.91
2023-01-30T10:40:04.017Z,99928.53
2023-01-30T10:42:49.157Z,99931.69
2023-01-30T10:45:20.560Z,99917.16
2023-01-30T10:47:55.303Z,99908.13
2023-01-30T10:51:15.175Z,99907.72
2023-01-30T10:53:48.221Z,99898.28
2023-01-30T10:56:20.789Z,99881.75
2023-01-30T10:58:59.231Z,99888.13
2023-01-30T11:01:41.336Z,99864.47
2023-01-30T11:04:36.562Z,99868.22
2023-01-30T11:07:05.663Z,99860.16
2023-01-30T11:09:44.568Z,99847.00
2023-01-30T11:12:12.334Z,99845.47
2023-01-30T11:15:00.922Z,99839.50
2023-01-30T11:17:29.426Z,99833.09
2023-01-30T11:19:58.289Z,99838.56
2023-01-30T11:22:27.130Z,99816.94
2023-01-30T11:25:24.221Z,99815.66
2023-01-30T11:27:55.056Z,99805.06
2023-01-30T11:30:27.969Z,99803.47
2023-01-30T11:33:11.650Z,99797.41
2023-01-30T11:35:59.127Z,99793.78
2023-01-30T11:38:32.792Z,99799.03
2023-01-30T11:41:11.542Z,99798.38
2023-01-30T11:43:40.135Z,99796.16
2023-01-30T11:46:09.267Z,99781.78
2023-01-30T11:49:02.668Z,99762.88
2023-01-30T11:51:35.616Z,99766.50
2023-01-30T11:54:05.351Z,99756.97
2023-01-30T11:56:34.208Z,99757.41
2023-01-30T11:59:13.904Z,99760.72
2023-01-30T12:01:41.163Z,99755.53
2023-01-30T12:04:12.065Z,99752.72
2023-01-30T12:06:42.327Z,99749.41
2023-01-30T12:09:30.473Z,99746.69
2023-01-30T12:11:57.895Z,99750.13
2023-01-30T12:14:25.592Z,99741.94
2023-01-30T12:17:18.448Z,99737.00
2023-01-30T12:19:58.472Z,99735.31
2023-01-30T12:22:32.138Z,99715.00
2023-01-30T12:25:18.538Z,99712.28
2023-01-30T12:28:07.487Z,99706.78
2023-01-30T12:30:46.531Z,99695.87
2023-01-30T12:35:50.374Z,99684.75
2023-01-30T12:38:45.216Z,99669.34
2023-01-30T12:41:24.762Z,99670.25
2023-01-30T12:44:23.381Z,99668.47
2023-01-30T12:47:34.062Z,99671.78
2023-01-30T12:50:10.818Z,99663.28
2023-01-30T12:52:44.312Z,99684.50
2023-01-30T12:55:37.627Z,99677.97
2023-01-30T12:58:27.358Z,99674.91
2023-01-30T13:01:16.712Z,99664.44
2023-01-30T13:04:13.315Z,99651.41
2023-01-30T13:06:50.309Z,99639.16
2023-01-30T13:09:31.392Z,99624.91
2023-01-30T13:12:01.578Z,99615.59
2023-01-30T13:14:36.664Z,99616.97
2023-01-30T13:17:20.336Z,99614.72
2023-01-30T13:20:13.159Z,99607.41
2023-01-30T13:22:52.709Z,99593.84
2023-01-30T13:25:23.190Z,99612.72
2023-01-30T13:27:57.797Z,99630.22
2023-01-30T13:30:27.632Z,99617.09
2023-01-30T13:33:01.346Z,99606.88
2023-01-30T13:35:30.699Z,99602.91
2023-01-30T13:37:58.819Z,99615.47
2023-01-30T13:40:29.206Z,99619.53
2023-01-30T13:43:01.722Z,99631.84
2023-01-30T13:45:32.400Z,99629.94
2023-01-30T13:48:03.772Z,99635.22
2023-01-30T13:50:50.566Z,99633.69
2023-01-30T13:53:30.539Z,99618.81
2023-01-30T13:55:58.874Z,99613.78
2023-01-30T13:58:45.318Z,99612.72
2023-01-30T14:01:13.253Z,99603.22
2023-01-30T14:03:42.036Z,99607.22
2023-01-30T14:06:21.873Z,99603.53
2023-01-30T14:08:51.018Z,99610.34
2023-01-30T14:11:34.112Z,99607.66
2023-01-30T14:14:06.160Z,99606.50
2023-01-30T14:16:40.133Z,99604.41
2023-01-30T14:19:21.071Z,99598.47
2023-01-30T14:21:57.945Z,99597.06
2023-01-30T14:24:25.469Z,99599.97
2023-01-30T14:26:59.715Z,99600.50
2023-01-30T14:29:42.468Z,99596.75
2023-01-30T14:32:13.767Z,99596.25
2023-01-30T14:34:47.506Z,99598.31
2023-01-30T14:37:27.068Z,99607.16
2023-01-30T14:39:55.683Z,99615.59
2023-01-30T14:42:26.621Z,99610.41
2023-01-30T14:45:01.775Z,99604.94
2023-01-30T14:47:36.662Z,99596.56
2023-01-30T14:50:19.247Z,99592.34
2023-01-30T14:52:47.016Z,99590.34
2023-01-30T14:55:21.792Z,99596.56
2023-01-30T14:57:57.063Z,99587.78
2023-01-30T15:00:30.375Z,99593.94
2023-01-30T15:03:00.649Z,99591.47
2023-01-30T15:05:32.144Z,99598.28
2023-01-30T15:07:59.653Z,99608.50
2023-01-30T15:10:34.073Z,99598.94
2023-01-30T15:13:07.773Z,99589.72
2023-01-30T15:15:35.060Z,99589.72
2023-01-30T15:18:25.346Z,99588.03
2023-01-30T15:20:58.626Z,99592.31
2023-01-30T15:23:44.816Z,99583.69
2023-01-30T15:26:14.811Z,99589.13
2023-01-30T15:29:01.316Z,99582.87
2023-01-30T15:31:28.559Z,99601.19
2023-01-30T15:33:57.424Z,99606.88
2023-01-30T15:36:31.589Z,99604.72
2023-01-30T15:39:03.382Z,99610.22
2023-01-30T15:41:31.813Z,99605.88
2023-01-30T15:44:06.047Z,99616.53
2023-01-30T15:46:42.635Z,99631.69
2023-01-30T15:49:24.879Z,99634.03
2023-01-30T15:51:52.289Z,99639.81
2023-01-30T15:54:20.319Z,99638.72
2023-01-30T15:56:49.659Z,99639.69
2023-01-30T15:59:26.599Z,99645.50
2023-01-30T16:02:07.955Z,99643.44
2023-01-30T16:04:35.509Z,99652.38
2023-01-30T16:07:14.064Z,99649.81
2023-01-30T16:09:42.661Z,99649.16
2023-01-30T16:12:29.198Z,99635.63
2023-01-30T16:15:12.319Z,99628.34
2023-01-30T16:17:48.409Z,99639.25
2023-01-30T16:20:16.108Z,99645.47
2023-01-30T16:22:44.206Z,99642.87
2023-01-30T16:25:22.398Z,99637.31
2023-01-30T16:27:51.698Z,99634.22
2023-01-30T16:30:23.284Z,99644.41
2023-01-30T16:32:51.775Z,99648.03
2023-01-30T16:35:27.393Z,99653.00
2023-01-30T16:37:56.986Z,99651.91
2023-01-30T16:40:31.976Z,99657.41
2023-01-30T16:43:04.360Z,99661.44
2023-01-30T16:45:34.634Z,99658.16
2023-01-30T16:48:17.653Z,99652.84
2023-01-30T16:50:47.785Z,99657.28
2023-01-30T16:53:17.140Z,99658.31
2023-01-30T16:55:54.853Z,99658.97
2023-01-30T16:58:22.374Z,99660.38
2023-01-30T17:00:52.542Z,99669.16
2023-01-30T17:03:24.691Z,99660.28
2023-01-30T17:05:52.938Z,99664.56
2023-01-30T17:08:40.649Z,99665.16
2023-01-30T17:11:08.814Z,99657.03
2023-01-30T17:13:41.815Z,99657.47
2023-01-30T17:16:17.741Z,99654.16
2023-01-30T17:18:55.049Z,99644.81
2023-01-30T17:21:25.422Z,99644.78
2023-01-30T17:24:05.956Z,99661.59
2023-01-30T17:26:34.295Z,99661.25
2023-01-30T17:29:01.822Z,99639.50
2023-01-30T17:31:29.732Z,99644.06
2023-01-30T17:33:58.140Z,99645.00
2023-01-30T17:36:25.703Z,99646.25
2023-01-30T17:38:56.595Z,99643.25
2023-01-30T17:41:26.015Z,99643.44
2023-01-30T17:43:54.619Z,99645.28
2023-01-30T17:46:23.718Z,99621.69
2023-01-30T17:48:51.953Z,99619.16
2023-01-30T17:51:19.420Z,99617.56
2023-01-30T17:53:49.134Z,99601.06
2023-01-30T17:56:23.049Z,99605.75
2023-01-30T17:58:51.179Z,99607.13
2023-01-30T18:01:19.187Z,99619.00
2023-01-30T18:03:47.455Z,99614.94
2023-01-30T18:06:16.115Z,99613.31
2023-01-30T18:08:44.117Z,99611.19
2023-01-30T18:11:15.045Z,99608.78
2023-01-30T18:13:42.892Z,99605.13
2023-01-30T18:16:15.756Z,99628.53
2023-01-30T18:18:44.276Z,99626.00
2023-01-30T18:21:13.337Z,99625.56
2023-01-30T18:23:41.440Z,99626.59
2023-01-30T18:26:11.649Z,99610.31
2023-01-30T18:28:40.579Z,99610.91
2023-01-30T18:31:08.514Z,99610.91
2023-01-30T18:33:37.127Z,99618.66
2023-01-30T18:36:05.840Z,99623.97
2023-01-30T18:38:34.101Z,99624.66
2023-01-30T18:41:14.843Z,99625.13
2023-01-30T18:43:45.417Z,99625.59
2023-01-30T18:46:17.975Z,99634.84
2023-01-30T18:48:47.488Z,99621.38
2023-01-30T18:51:20.308Z,99629.63
2023-01-30T18:53:49.104Z,99639.59
2023-01-30T18:56:23.912Z,99644.78
2023-01-30T18:58:53.667Z,99644.69
2023-01-30T19:01:27.443Z,99649.44
2023-01-30T19:03:59.712Z,99645.84
2023-01-30T19:06:30.563Z,99648.47
2023-01-30T19:08:59.355Z,99645.56
2023-01-30T19:11:46.869Z,99654.28
2023-01-30T19:14:16.189Z,99648.72
2023-01-30T19:16:47.010Z,99657.44
2023-01-30T19:19:16.185Z,99662.44
2023-01-30T19:21:45.110Z,99648.78
2023-01-30T19:24:15.875Z,99654.19
2023-01-30T19:26:45.444Z,99658.56
2023-01-30T19:29:13.460Z,99648.66
2023-01-30T19:31:42.059Z,99646.47
2023-01-30T19:34:11.270Z,99649.84
2023-01-30T19:36:40.282Z,99653.88
2023-01-30T19:39:08.683Z,99645.00
2023-01-30T19:41:37.459Z,99647.97
2023-01-30T19:44:06.765Z,99644.88
2023-01-30T19:46:35.630Z,99643.81
2023-01-30T19:49:05.767Z,99644.78
2023-01-30T19:51:34.774Z,99650.72
2023-01-30T19:54:06.694Z,99655.53
2023-01-30T19:56:39.274Z,99664.09
2023-01-30T19:59:07.582Z,99668.31
2023-01-30T20:01:40.030Z,99667.41
2023-01-30T20:04:08.862Z,99661.88
2023-01-30T20:06:38.323Z,99649.81
2023-01-30T20:09:09.839Z,99657.66
2023-01-30T20:11:40.833Z,99650.91
2023-01-30T20:14:08.932Z,99649.63
2023-01-30T20:16:37.274Z,99639.50
2023-01-30T20:19:06.739Z,99630.78
2023-01-30T20:21:35.125Z,99632.41
2023-01-30T20:24:04.164Z,99642.03
2023-01-30T20:26:35.519Z,99628.75
2023-01-30T20:29:04.406Z,99627.34
2023-01-30T20:31:39.513Z,99621.16
2023-01-30T20:34:09.091Z,99617.56
2023-01-30T20:36:39.383Z,99628.06
2023-01-30T20:39:09.281Z,99627.66
2023-01-30T20:41:40.586Z,99617.34
2023-01-30T20:44:09.114Z,99619.06
2023-01-30T20:46:42.772Z,99627.91
2023-01-30T20:49:14.876Z,99614.81
2023-01-30T20:51:43.696Z,99621.22
2023-01-30T20:54:12.819Z,99612.34
2023-01-30T20:56:43.311Z,99604.06
2023-01-30T20:59:24.238Z,99602.50
2023-01-30T21:01:52.242Z,99597.06
2023-01-30T21:04:21.984Z,99591.31
2023-01-30T21:06:49.579Z,99599.56
2023-01-30T21:09:18.668Z,99592.00
2023-01-30T21:11:47.205Z,99583.78
2023-01-30T21:14:15.449Z,99601.06
2023-01-30T21:16:43.297Z,99617.41
2023-01-30T21:19:14.164Z,99615.72
2023-01-30T21:21:55.990Z,99624.28
2023-01-30T21:24:29.017Z,99612.94
2023-01-30T21:26:56.713Z,99622.34
2023-01-30T21:29:26.118Z,99626.56
2023-01-30T21:31:54.090Z,99623.09
2023-01-30T21:34:21.692Z,99625.22
2023-01-30T21:37:09.255Z,99616.22
2023-01-30T21:39:55.141Z,99610.66
2023-01-30T21:42:41.366Z,99604.91
2023-01-30T21:45:08.781Z,99600.34
2023-01-30T21:47:37.013Z,99600.78
2023-01-30T21:50:04.967Z,99600.78
2023-01-30T21:52:33.099Z,99605.47
2023-01-30T21:55:00.675Z,99595.91
2023-01-30T21:57:27.900Z,99598.78
2023-01-30T21:59:55.621Z,99594.09
2023-01-30T22:02:23.124Z,99592.97
2023-01-30T22:04:50.690Z,99594.31
2023-01-30T22:07:17.872Z,99603.75
2023-01-30T22:09:45.048Z,99606.03
2023-01-30T22:12:15.106Z,99588.63
2023-01-30T22:14:42.311Z,99598.88
2023-01-30T22:17:09.609Z,99594.16
2023-01-30T22:19:37.100Z,99603.19
2023-01-30T22:22:04.409Z,99591.56
2023-01-30T22:24:31.664Z,99592.66
2023-01-30T22:26:59.159Z,99579.47
2023-01-30T22:29:26.376Z,99590.06
2023-01-30T22:31:53.575Z,99580.13
2023-01-30T22:34:22.446Z,99597.47
2023-01-30T22:36:49.633Z,99591.38
2023-01-30T22:39:16.776Z,99595.31
2023-01-30T22:41:44.288Z,99596.78
2023-01-30T22:44:11.507Z,99604.41
2023-01-30T22:46:40.042Z,99587.84
2023-01-30T22:49:08.319Z,99588.16
2023-01-30T22:51:37.078Z,99593.91
2023-01-30T22:54:05.372Z,99592.44
2023-01-30T22:56:40.955Z,99585.84
2023-01-30T22:59:08.461Z,99592.03
2023-01-30T23:01:37.243Z,99589.47
2023-01-30T23:04:10.165Z,99594.66
2023-01-30T23:06:38.231Z,99599.00
2023-01-30T23:09:05.845Z,99596.22
2023-01-30T23:11:37.872Z,99598.53
2023-01-30T23:14:06.939Z,99592.69
2023-01-30T23:16:34.613Z,99582.44
2023-01-30T23:19:04.455Z,99588.75
2023-01-30T23:21:35.841Z,99576.88
2023-01-30T23:24:23.279Z,99573.31
2023-01-30T23:26:51.289Z,99579.16
2023-01-30T23:29:20.129Z,99594.78
2023-01-30T23:31:47.818Z,99594.69
2023-01-30T23:34:17.984Z,99580.63
2023-01-30T23:36:46.378Z,99578.09
2023-01-30T23:39:14.434Z,99574.41
2023-01-30T23:41:42.200Z,99566.50
2023-01-30T23:44:09.692Z,99566.31
2023-01-30T23:46:37.790Z,99558.37
2023-01-30T23:49:06.455Z,99559.81
2023-01-30T23:51:34.255Z,99560.25
2023-01-30T23:54:01.761Z,99547.12
2023-01-30T23:56:29.680Z,99560.19
2023-01-30T23:58:56.870Z,99555.00
